Flight Track Log - Related Links

Times and Time Zones

All times are in EST time to prevent confusion due to time zone crossing. See the UAL1146 flight status page for this flight to view local times or setup timezone preferences in your user account.

Time Position Orientation Groundspeed Altitude Reporting Facility
EST Latitude Longitude Course Direction KTS MPH feet Rate Location/Type
Tue 09:06:42 AM 29.9454 -95.3483 157° South 164 189 1,600  Level FlightAware ADS-B
Tue 09:06:48 AM 29.9422 -95.3520 225° Southwest 175 201 1,900 2,571 Climbing FlightAware ADS-B
Tue 09:06:56 AM 29.9377 -95.3583 231° Southwest 188 216 2,200 2,500 Climbing FlightAware ADS-B
Tue 09:07:00 AM 29.9360 -95.3619 241° Southwest 195 224 2,400 2,571 Climbing FlightAware ADS-B
Tue 09:07:03 AM 29.9350 -95.3649 249° West 202 232 2,500 2,571 Climbing FlightAware ADS-B
Tue 09:07:07 AM 29.9343 -95.3690 259° West 208 239 2,700 2,250 Climbing FlightAware ADS-B
Tue 09:07:11 AM 29.9344 -95.3738 271° West 214 246 2,800 2,400 Climbing FlightAware ADS-B
Tue 09:07:17 AM 29.9359 -95.3814 283° West 230 265 3,100 2,667 Climbing FlightAware ADS-B
Tue 09:07:20 AM 29.9375 -95.3851 297° West 242 278 3,200 2,250 Climbing FlightAware ADS-B
Tue 09:07:25 AM 29.9404 -95.3902 303° West 252 290 3,400 1,800 Climbing FlightAware ADS-B
Tue 09:07:30 AM 29.9448 -95.3951 316° Northwest 264 304 3,500 1,333 Climbing FlightAware ADS-B
Tue 09:07:34 AM 29.9489 -95.3984 325° Northwest 271 312 3,600 1,500 Climbing FlightAware ADS-B
Tue 09:07:38 AM 29.9533 -95.4007 336° Northwest 276 318 3,700 2,250 Climbing FlightAware ADS-B
Tue 09:07:42 AM 29.9579 -95.4024 342° North 278 320 3,900 3,750 Climbing FlightAware ADS-B
Tue 09:07:46 AM 29.9639 -95.4031 354° North 281 323 4,200 4,200 Climbing FlightAware ADS-B
Tue 09:07:52 AM 29.9718 -95.4032 359° North 284 327 4,600 4,636 Climbing FlightAware ADS-B
Tue 09:08:08 AM 29.9925 -95.4010 North 285 328 5,900 4,688 Climbing FlightAware ADS-B
Tue 09:08:24 AM 30.0132 -95.3984 North 287 330 7,100 4,452 Climbing FlightAware ADS-B
Tue 09:08:39 AM 30.0332 -95.3961 North 286 329 8,200 4,571 Climbing FlightAware ADS-B
Tue 09:08:45 AM 30.0406 -95.3951 North 286 329 8,700 4,500 Climbing FlightAware ADS-B
Tue 09:08:51 AM 30.0484 -95.3933 11° North 288 331 9,100 3,818 Climbing FlightAware ADS-B
Tue 09:08:56 AM 30.0551 -95.3907 19° North 291 335 9,400 4,000 Climbing FlightAware ADS-B
Tue 09:09:00 AM 30.0611 -95.3877 23° Northeast 293 337 9,700 3,474 Climbing FlightAware ADS-B
Tue 09:09:15 AM 30.0787 -95.3778 26° Northeast 305 351 10,500 2,455 Climbing FlightAware ADS-B
Tue 09:09:22 AM 30.0871 -95.3711 35° Northeast 319 367 10,600 2,757 Climbing FlightAware ADS-B
Tue 09:09:52 AM 30.1226 -95.3357 41° Northeast 341 392 12,200 3,443 Climbing FlightAware ADS-B
Tue 09:10:23 AM 30.1596 -95.2981 41° Northeast 351 404 14,100 3,656 Climbing FlightAware ADS-B
Tue 09:10:56 AM 30.2001 -95.2564 42° Northeast 358 412 16,100 3,224 Climbing FlightAware ADS-B
Tue 09:11:30 AM 30.2442 -95.2113 41° Northeast 378 435 17,700 2,735 Climbing FlightAware ADS-B
Tue 09:12:04 AM 30.2897 -95.1642 42° Northeast 391 450 19,200 2,727 Climbing FlightAware ADS-B
Tue 09:12:36 AM 30.3331 -95.1195 42° Northeast 403 464 20,700 2,903 Climbing FlightAware ADS-B
Tue 09:13:06 AM 30.3759 -95.0755 42° Northeast 411 473 22,200 2,852 Climbing FlightAware ADS-B
Tue 09:13:37 AM 30.4203 -95.0295 42° Northeast 416 479 23,600 2,585 Climbing FlightAware ADS-B
Tue 09:14:11 AM 30.4694 -94.9783 42° Northeast 424 488 25,000 2,308 Climbing FlightAware ADS-B
Tue 09:14:42 AM 30.5151 -94.9312 42° Northeast 439 505 26,100 2,160 Climbing FlightAware ADS-B
Tue 09:15:01 AM 30.5459 -94.9010 40° Northeast 443 510 26,800 2,182 Climbing FlightAware ADS-B
Tue 09:15:26 AM 30.5864 -94.8664 36° Northeast 447 514 27,700 2,143 Climbing FlightAware ADS-B
Tue 09:15:57 AM 30.6400 -94.8254 33° Northeast 454 522 28,800 2,066 Climbing FlightAware ADS-B
Tue 09:16:27 AM 30.6939 -94.7838 34° Northeast 462 532 29,800 2,000 Climbing FlightAware ADS-B
Tue 09:16:57 AM 30.7477 -94.7422 34° Northeast 469 540 30,800 1,900 Climbing FlightAware ADS-B
Tue 09:17:27 AM 30.8031 -94.6996 33° Northeast 475 547 31,700 1,672 Climbing FlightAware ADS-B
Tue 09:17:58 AM 30.8593 -94.6563 33° Northeast 483 556 32,500 1,548 Climbing FlightAware ADS-B
Tue 09:18:29 AM 30.9171 -94.6117 34° Northeast 490 564 33,300 1,574 Climbing FlightAware ADS-B
Tue 09:18:59 AM 30.9743 -94.5673 34° Northeast 494 568 34,100 1,377 Climbing FlightAware ADS-B
Tue 09:19:30 AM 31.0341 -94.5208 34° Northeast 502 578 34,700 885 Climbing FlightAware ADS-B
Tue 09:20:00 AM 31.0932 -94.4748 34° Northeast 507 583 35,000 930 Climbing FlightAware ADS-B
Tue 09:20:41 AM 31.1728 -94.4128 34° Northeast 512 589 35,800 1,342 Climbing FlightAware ADS-B
Tue 09:21:16 AM 31.2412 -94.3597 34° Northeast 513 590 36,700 1,569 Climbing FlightAware ADS-B
Tue 09:21:46 AM 31.3008 -94.3131 34° Northeast 510 587 37,500 1,279 Climbing FlightAware ADS-B
Tue 09:22:17 AM 31.3610 -94.2658 34° Northeast 512 589 38,000 968 Climbing FlightAware ADS-B
Tue 09:22:48 AM 31.4237 -94.2165 34° Northeast 517 595 38,500 973 Climbing FlightAware ADS-B
Tue 09:22:54 AM 31.4342 -94.2077 36° Northeast 518 596 38,600 818 Climbing FlightAware ADS-B
Tue 09:23:10 AM 31.4650 -94.1779 40° Northeast 524 603 38,800 545 Climbing FlightAware ADS-B
Tue 09:23:27 AM 31.4947 -94.1431 45° Northeast 531 611 38,900 333 Climbing FlightAware ADS-B
Tue 09:23:46 AM 31.5240 -94.1015 50° Northeast 537 618 39,000 667 Climbing FlightAware ADS-B
Tue 09:24:21 AM 31.5770 -94.0226 52° Northeast 541 623 39,500 1,108 Climbing FlightAware ADS-B
Tue 09:24:51 AM 31.6241 -93.9523 52° Northeast 537 618 40,200 1,400 Climbing FlightAware ADS-B
Tue 09:25:21 AM 31.6703 -93.8835 52° Northeast 532 612 40,900 762 Climbing FlightAware ADS-B
Tue 09:25:54 AM 31.7196 -93.8106 52° Northeast 521 600 41,000 87 Climbing FlightAware ADS-B
Tue 09:26:30 AM 31.7732 -93.7309 52° Northeast 519 597 41,000  Level FlightAware ADS-B
Tue 09:27:03 AM 31.8224 -93.6574 52° Northeast 519 597 41,000  Level FlightAware ADS-B
Tue 09:27:40 AM 31.8767 -93.5757 52° Northeast 522 601 41,000  Level FlightAware ADS-B
Tue 09:27:43 AM 31.8794 -93.5775 52° Northeast 520 598 41,000  Level Fort Worth Center
Tue 09:29:04 AM 31.9980 -93.3930 52° Northeast 520 598 41,000  Level FlightAware ADS-B
Tue 09:29:59 AM 32.0750 -93.2760 52° Northeast 523 602 41,000  Level FlightAware ADS-B
Tue 09:30:34 AM 32.1130 -93.2190 52° Northeast 523 602 41,000  Level FlightAware ADS-B
Tue 09:31:14 AM 32.1640 -93.1420 52° Northeast 523 602 41,000  Level FlightAware ADS-B
Tue 09:31:54 AM 32.2140 -93.0660 52° Northeast 523 602 41,000  Level FlightAware ADS-B
Tue 09:32:34 AM 32.2650 -92.9890 52° Northeast 523 602 41,000  Level FlightAware ADS-B
Tue 09:33:19 AM 32.3280 -92.8930 52° Northeast 523 602 41,000  Level FlightAware ADS-B
Tue 09:33:59 AM 32.3790 -92.8160 52° Northeast 523 602 41,000  Level FlightAware ADS-B
Tue 09:34:34 AM 32.4170 -92.7590 52° Northeast 523 602 41,000  Level FlightAware ADS-B
Tue 09:35:43 AM 32.5828 -92.4950 52° Northeast 535 616 41,000  Level Fort Worth Center
Tue 09:36:43 AM 32.6794 -92.3517 51° Northeast 535 616 41,000  Level Fort Worth Center
Tue 09:38:35 AM 32.8586 -92.0736 52° Northeast 569 655 41,000  Level Memphis Center
Tue 09:39:35 AM 32.9481 -91.9342 53° Northeast 557 641 41,000  Level Memphis Center
Tue 09:40:35 AM 33.0394 -91.7944 52° Northeast 547 629 41,000 -150 Level Memphis Center
Tue 09:41:35 AM 33.1308 -91.6547 52° Northeast 542 624 40,700 -900 Descending Memphis Center
Tue 09:42:35 AM 33.2239 -91.5119 52° Northeast 537 618 39,200 -1,450 Descending Memphis Center
Tue 09:43:35 AM 33.3108 -91.3739 53° Northeast 531 611 37,800 -1,400 Descending Memphis Center
Tue 09:44:35 AM 33.3994 -91.2356 52° Northeast 531 611 36,400 -900 Descending Memphis Center
Tue 09:45:35 AM 33.4881 -91.0969 53° Northeast 526 605 36,000 -700 Descending Memphis Center
Tue 09:46:35 AM 33.5639 -90.9531 58° Northeast 520 598 35,000 -1,650 Descending Memphis Center
Tue 09:47:35 AM 33.5061 -90.8106 116° Southeast 418 481 32,700 -1,900 Descending Memphis Center
Tue 09:48:35 AM 33.3789 -90.7478 158° South 383 441 31,200 -850 Descending Memphis Center
Tue 09:49:35 AM 33.2517 -90.7175 169° South 402 463 31,000 -450 Descending Memphis Center
Tue 09:50:35 AM 33.1225 -90.6872 169° South 444 511 30,300 -1,000 Descending Memphis Center
Tue 09:51:35 AM 33.0014 -90.6569 168° South 481 554 29,000 -650 Descending Memphis Center
Tue 09:52:35 AM 32.8678 -90.6269 169° South 492 566 29,000  Level Memphis Center
Tue 09:53:35 AM 32.7344 -90.5944 168° South 492 566 29,000  Level Memphis Center
Tue 09:54:35 AM 32.6008 -90.5619 168° South 492 566 29,000  Level Memphis Center
Tue 09:55:35 AM 32.4672 -90.5322 169° South 492 566 29,000  Level Memphis Center
Tue 09:56:35 AM 32.3336 -90.5000 168° South 486 559 29,000  Level Memphis Center
Tue 09:57:35 AM 32.2042 -90.4678 168° South 486 559 29,000 -39 Level Memphis Center
Tue 09:59:10 AM 31.9994 -90.4181 168° South 497 572 28,900  Descending Houston Center
Tue 10:00:10 AM 31.8656 -90.3881 169° South 492 566 29,000 50 Climbing Houston Center
Tue 10:01:11 AM 31.7319 -90.3581 169° South 492 566 29,000 -950 Level Houston Center
Tue 10:02:10 AM 31.5981 -90.3233 168° South 492 566 27,100 -1,966 Descending Houston Center
Tue 10:03:10 AM 31.4683 -90.2983 171° South 487 560 25,100 -1,600 Descending Houston Center
Tue 10:04:10 AM 31.3431 -90.2708 169° South 476 548 23,900 -700 Descending Houston Center
Tue 10:05:10 AM 31.2303 -90.2553 173° South 446 513 23,700 -600 Descending Houston Center
Tue 10:06:10 AM 31.1319 -90.2447 175° South 403 464 22,700 -1,263 Descending Houston Center
Tue 10:06:26 AM 31.0944 -90.2453 181° South 342 394 22,100 -2,400 Descending Houston Center
Tue 10:06:50 AM 31.0569 -90.2458 181° South 333 383 21,100 -2,182 Descending Houston Center
Tue 10:07:10 AM 31.0381 -90.2386 162° South 360 414 20,500 -2,239 Descending Houston Center
Tue 10:07:57 AM 30.9544 -90.2350 178° South 329 379 18,600 -2,056 Descending Houston Center
Tue 10:08:58 AM 30.8692 -90.2436 185° South 305 351 16,800 -1,770 Descending Houston Center
Tue 10:09:59 AM 30.7878 -90.2592 189° South 293 337 15,000 -1,884 Descending Houston Center
Tue 10:10:59 AM 30.7067 -90.2772 191° South 289 333 13,000 -1,983 Descending Houston Center
Tue 10:12:00 AM 30.6275 -90.2903 188° South 284 327 11,000 -1,967 Descending Houston Center
Tue 10:13:01 AM 30.5503 -90.3058 190° South 280 322 9,000 -2,033 Descending Houston Center
Tue 10:14:01 AM 30.4753 -90.3214 190° South 277 319 6,900 -1,983 Descending Houston Center
Tue 10:14:56 AM 30.4067 -90.3367 191° South 272 313 5,200 -1,714 Descending Houston Center
Tue 10:15:11 AM 30.3983 -90.3344 167° South 281 323 4,900 -982 Descending Houston Center
Tue 10:15:51 AM 30.3442 -90.3494 193° South 245 282 4,300 -700 Descending Houston Center
Tue 10:16:11 AM 30.3317 -90.3472 171° South 267 307 4,200 -273 Descending Houston Center
Tue 10:16:57 AM 30.2753 -90.3625 193° South 208 239 4,000 -319 Descending Houston Center
Tue 10:18:04 AM 30.2131 -90.3825 196° South 213 245 3,600 -443 Descending Houston Center
Tue 10:18:59 AM 30.1672 -90.4047 203° Southwest 197 227 3,100 -645 Descending Houston Center
Tue 10:20:05 AM 30.1172 -90.4269 201° Southwest 180 207 2,300 -520 Descending Houston Center
Tue 10:21:06 AM 30.0694 -90.4492 202° Southwest 165 190 2,000 -155 Descending Houston Center
Tue 10:22:01 AM 30.0403 -90.4350 157° South 159 183 2,000 -148 Level Houston Center
Tue 10:23:08 AM 30.0167 -90.3872 120° Southeast 155 178 1,700 -446 Descending Houston Center
Tue 10:24:02 AM 30.0103 -90.3489 101° East 131 151 1,100 -678 Descending Houston Center
Tue 10:25:03 AM 29.9992 -90.3083 108° East 130 150 400 -689 Descending Houston Center

Login

Don't have an account? Register now (free) for customized features, flight alerts, and more!